Time;durP1;ratioP1;P1;durP2;ratioP2;P2;SDS_P1;SDS_P2;PMS_P1;PMS_P2;Temp;Humidity;BMP_temperature;BMP_pressure;BME280_temperature;BME280_humidity;BME280_pressure;Samples;Min_cycle;Max_cycle;Signal;HPM_P1;HPM_P2
2023/04/14 00:00:55;;;;;;;10.40;9.80;;;;;;;;;;4994357;28;20034;-57
2023/04/14 00:03:20;;;;;;;10.75;10.10;;;;;;;;;;4992865;28;20602;-57
2023/04/14 00:05:46;;;;;;;11.35;10.65;;;;;;;;;;4994822;28;20025;-57
2023/04/14 00:08:11;;;;;;;11.10;10.40;;;;;;;;;;4990668;28;20517;-57
2023/04/14 00:10:36;;;;;;;10.52;9.93;;;;;;;;;;4996552;28;20022;-56
2023/04/14 00:13:02;;;;;;;11.10;10.40;;;;;;;;;;4992877;28;20449;-57
2023/04/14 00:15:27;;;;;;;10.65;10.02;;;;;;;;;;4994152;28;20474;-56
2023/04/14 00:17:53;;;;;;;9.95;9.35;;;;;;;;;;4994321;28;20026;-64
2023/04/14 00:20:18;;;;;;;10.25;9.65;;;;;;;;;;5025713;28;20041;-59
2023/04/14 00:22:43;;;;;;;9.80;9.20;;;;;;;;;;4991977;28;20041;-57
2023/04/14 00:25:09;;;;;;;9.13;8.52;;;;;;;;;;4996359;28;20659;-57
2023/04/14 00:27:34;;;;;;;9.13;8.52;;;;;;;;;;4994889;28;20425;-57
2023/04/14 00:30:00;;;;;;;9.38;8.77;;;;;;;;;;4994018;28;20146;-57
2023/04/14 00:32:25;;;;;;;10.13;9.45;;;;;;;;;;4993741;28;20337;-57
2023/04/14 00:34:50;;;;;;;9.85;9.13;;;;;;;;;;4995243;28;20352;-58
2023/04/14 00:37:16;;;;;;;9.60;9.00;;;;;;;;;;4999717;28;20595;-58
2023/04/14 00:39:41;;;;;;;9.82;9.23;;;;;;;;;;4998243;28;20426;-57
2023/04/14 00:42:07;;;;;;;9.93;9.32;;;;;;;;;;4998385;28;20045;-57
2023/04/14 00:44:32;;;;;;;9.85;9.25;;;;;;;;;;4998971;28;20072;-57
2023/04/14 00:46:59;;;;;;;10.15;9.50;;;;;;;;;;4998686;28;20108;-56
2023/04/14 00:49:25;;;;;;;9.55;8.95;;;;;;;;;;4998348;28;20761;-57
2023/04/14 00:51:51;;;;;;;9.75;9.15;;;;;;;;;;4996716;28;20038;-56
2023/04/14 00:54:18;;;;;;;9.93;9.32;;;;;;;;;;4994131;28;20130;-56
2023/04/14 00:56:45;;;;;;;11.02;10.32;;;;;;;;;;4997216;28;20057;-57
2023/04/14 00:59:11;;;;;;;9.90;9.30;;;;;;;;;;5029242;28;20038;-57
2023/04/14 01:01:37;;;;;;;10.05;9.45;;;;;;;;;;4996756;28;20069;-57
2023/04/14 01:04:03;;;;;;;10.65;10.00;;;;;;;;;;4997011;28;20053;-57
2023/04/14 01:06:29;;;;;;;10.15;9.55;;;;;;;;;;4997756;28;20037;-57
2023/04/14 01:08:56;;;;;;;10.23;9.52;;;;;;;;;;4997256;28;20609;-57
2023/04/14 01:11:40;;;;;;;10.27;9.48;;;;;;;;;;4996042;28;20034;-57
2023/04/14 01:14:08;;;;;;;9.55;8.95;;;;;;;;;;4997408;28;20035;-57
2023/04/14 01:16:38;;;;;;;10.30;9.70;;;;;;;;;;5000678;28;20048;-57
2023/04/14 01:19:12;;;;;;;10.38;9.68;;;;;;;;;;4998868;28;20864;-57
2023/04/14 01:21:42;;;;;;;10.77;10.07;;;;;;;;;;4994340;28;20038;-58
2023/04/14 01:24:24;;;;;;;10.43;9.75;;;;;;;;;;4998134;28;20049;-57
2023/04/14 01:27:02;;;;;;;10.55;9.95;;;;;;;;;;4997296;28;20048;-57
2023/04/14 01:30:13;;;;;;;11.48;10.77;;;;;;;;;;4994546;28;20033;-57
2023/04/14 01:32:43;;;;;;;;;;;;;;;;;;4998576;28;20033;-58
2023/04/14 01:35:20;;;;;;;10.07;9.48;;;;;;;;;;4996892;28;19940;-57
2023/04/14 01:37:51;;;;;;;9.57;8.98;;;;;;;;;;4996393;28;20407;-57
2023/04/14 01:40:18;;;;;;;8.98;8.38;;;;;;;;;;4997393;28;20563;-57
2023/04/14 01:42:48;;;;;;;9.05;8.43;;;;;;;;;;4995051;28;20514;-57
2023/04/14 01:45:24;;;;;;;8.80;8.23;;;;;;;;;;4995920;28;20125;-57
2023/04/14 01:47:50;;;;;;;8.88;8.27;;;;;;;;;;4998889;28;20431;-56
2023/04/14 01:50:17;;;;;;;8.77;8.18;;;;;;;;;;4996526;28;20034;-57
2023/04/14 01:52:46;;;;;;;8.70;8.10;;;;;;;;;;4996177;28;20042;-57
2023/04/14 01:55:15;;;;;;;8.75;8.18;;;;;;;;;;4996442;28;20116;-57
2023/04/14 01:57:43;;;;;;;9.10;8.50;;;;;;;;;;4998763;28;20088;-57
2023/04/14 02:00:10;;;;;;;8.80;8.20;;;;;;;;;;4997522;28;20124;-58
2023/04/14 02:02:38;;;;;;;9.10;8.50;;;;;;;;;;4996256;28;20029;-57
2023/04/14 02:05:06;;;;;;;8.82;8.23;;;;;;;;;;4995948;28;20837;-58
2023/04/14 02:07:33;;;;;;;8.27;7.78;;;;;;;;;;4996427;28;20542;-57
2023/04/14 02:09:59;;;;;;;9.23;8.63;;;;;;;;;;4996912;28;20124;-57
2023/04/14 02:12:27;;;;;;;9.45;8.75;;;;;;;;;;4994990;28;20041;-65
2023/04/14 02:14:54;;;;;;;9.05;8.45;;;;;;;;;;4995448;28;20026;-57
2023/04/14 02:17:20;;;;;;;8.70;8.10;;;;;;;;;;4995303;28;20604;-57
2023/04/14 02:19:46;;;;;;;9.75;9.13;;;;;;;;;;4997863;28;20034;-57
2023/04/14 02:22:12;;;;;;;9.10;8.50;;;;;;;;;;4994372;28;20044;-58
2023/04/14 02:24:38;;;;;;;9.55;8.95;;;;;;;;;;4995488;28;20034;-65
2023/04/14 02:27:12;;;;;;;8.95;8.35;;;;;;;;;;4997132;28;20092;-57
2023/04/14 02:29:41;;;;;;;12.50;9.93;;;;;;;;;;4997429;28;20048;-66
2023/04/14 02:32:13;;;;;;;9.23;8.63;;;;;;;;;;4995116;28;20046;-65
2023/04/14 02:34:46;;;;;;;9.13;8.52;;;;;;;;;;4994930;28;20045;-57
2023/04/14 02:37:17;;;;;;;9.38;8.77;;;;;;;;;;4994405;28;20077;-65
2023/04/14 02:39:46;;;;;;;9.45;8.85;;;;;;;;;;4996539;28;20057;-65
2023/04/14 02:42:15;;;;;;;9.05;8.45;;;;;;;;;;4996600;28;20115;-65
2023/04/14 02:44:48;;;;;;;8.75;8.18;;;;;;;;;;4992143;28;20030;-65
2023/04/14 02:47:28;;;;;;;8.98;8.38;;;;;;;;;;4995736;28;20030;-65
2023/04/14 02:49:55;;;;;;;8.50;8.00;;;;;;;;;;4997622;28;20045;-65
2023/04/14 02:52:23;;;;;;;9.10;8.50;;;;;;;;;;4995557;28;20036;-65
2023/04/14 02:54:50;;;;;;;9.93;9.32;;;;;;;;;;4994468;28;20045;-65
2023/04/14 02:57:16;;;;;;;9.80;9.20;;;;;;;;;;4991646;28;20076;-65
2023/04/14 02:59:44;;;;;;;9.68;9.07;;;;;;;;;;4997279;28;20037;-57
2023/04/14 03:02:11;;;;;;;9.85;9.25;;;;;;;;;;4995410;28;20049;-57
2023/04/14 03:04:37;;;;;;;10.15;9.55;;;;;;;;;;4994607;28;20085;-57
2023/04/14 03:07:07;;;;;;;9.95;9.25;;;;;;;;;;4996288;28;20041;-57
2023/04/14 03:09:33;;;;;;;10.88;10.10;;;;;;;;;;4992277;28;20048;-57
2023/04/14 03:12:01;;;;;;;10.02;9.43;;;;;;;;;;4995777;28;20042;-57
2023/04/14 03:14:27;;;;;;;10.70;10.05;;;;;;;;;;4997478;28;20130;-57
2023/04/14 03:16:53;;;;;;;10.15;9.55;;;;;;;;;;4993596;28;20105;-57
2023/04/14 03:19:22;;;;;;;9.85;9.25;;;;;;;;;;4995195;28;20034;-57
2023/04/14 03:21:53;;;;;;;10.35;9.65;;;;;;;;;;4994205;28;20112;-57
2023/04/14 03:24:23;;;;;;;10.10;9.45;;;;;;;;;;4993442;28;20030;-57
2023/04/14 03:26:56;;;;;;;9.18;8.57;;;;;;;;;;4997632;28;20030;-57
2023/04/14 03:29:25;;;;;;;9.32;8.73;;;;;;;;;;4993618;28;20034;-59
2023/04/14 03:31:53;;;;;;;8.80;8.25;;;;;;;;;;4996564;28;20027;-57
2023/04/14 03:34:20;;;;;;;8.27;7.78;;;;;;;;;;4993162;28;20038;-57
2023/04/14 03:36:47;;;;;;;8.60;8.07;;;;;;;;;;4993124;28;20031;-64
2023/04/14 03:39:16;;;;;;;8.05;7.55;;;;;;;;;;4996358;28;20049;-57
2023/04/14 03:41:46;;;;;;;8.70;8.10;;;;;;;;;;4991345;28;20363;-64
2023/04/14 03:44:15;;;;;;;9.48;8.77;;;;;;;;;;4994963;28;20045;-66
2023/04/14 03:46:40;;;;;;;8.50;7.97;;;;;;;;;;4994152;28;20030;-58
2023/04/14 03:49:09;;;;;;;9.35;8.75;;;;;;;;;;4994863;28;20035;-58
2023/04/14 03:51:37;;;;;;;9.55;8.95;;;;;;;;;;4993632;28;20800;-58
2023/04/14 03:54:05;;;;;;;9.48;8.88;;;;;;;;;;4996648;28;20053;-65
2023/04/14 03:56:36;;;;;;;10.27;9.57;;;;;;;;;;4995066;28;20042;-65
2023/04/14 03:59:02;;;;;;;10.73;9.98;;;;;;;;;;4977903;28;20029;-63
2023/04/14 04:01:29;;;;;;;10.40;9.70;;;;;;;;;;4996653;28;20038;-64
2023/04/14 04:03:55;;;;;;;10.50;9.80;;;;;;;;;;4995387;28;20085;-66
2023/04/14 04:06:21;;;;;;;10.02;9.38;;;;;;;;;;4991866;28;20136;-67
2023/04/14 04:08:48;;;;;;;10.15;9.55;;;;;;;;;;4995121;28;20120;-67
2023/04/14 04:11:17;;;;;;;11.23;10.43;;;;;;;;;;4991161;28;20073;-64
2023/04/14 04:13:45;;;;;;;10.73;9.93;;;;;;;;;;5025123;28;20042;-66
2023/04/14 04:16:12;;;;;;;10.25;9.55;;;;;;;;;;4995508;28;20038;-65
2023/04/14 04:18:38;;;;;;;11.35;10.45;;;;;;;;;;4992600;28;20540;-64
2023/04/14 04:21:05;;;;;;;10.55;9.85;;;;;;;;;;4994834;28;20041;-64
2023/04/14 04:23:32;;;;;;;10.05;9.40;;;;;;;;;;4997729;28;20034;-64
2023/04/14 04:25:58;;;;;;;9.63;9.02;;;;;;;;;;4991844;28;20037;-64
2023/04/14 04:28:23;;;;;;;9.73;9.13;;;;;;;;;;4994691;28;20463;-64
2023/04/14 04:30:51;;;;;;;10.55;9.85;;;;;;;;;;4995120;28;20045;-64
2023/04/14 04:33:17;;;;;;;9.45;8.85;;;;;;;;;;4990816;28;20439;-64
2023/04/14 04:35:44;;;;;;;10.10;9.38;;;;;;;;;;4991959;28;20061;-64
2023/04/14 04:38:10;;;;;;;9.75;9.10;;;;;;;;;;4990562;28;20052;-64
2023/04/14 04:40:37;;;;;;;9.55;8.88;;;;;;;;;;4996542;28;20042;-65
2023/04/14 04:43:03;;;;;;;10.10;9.30;;;;;;;;;;4993842;28;20594;-65
2023/04/14 04:45:56;;;;;;;10.05;9.35;;;;;;;;;;4993767;28;20113;-65
2023/04/14 04:48:21;;;;;;;10.30;9.60;;;;;;;;;;4997046;28;20104;-65
2023/04/14 04:50:46;;;;;;;10.20;9.50;;;;;;;;;;4995034;28;20100;-65
2023/04/14 04:53:12;;;;;;;10.15;9.45;;;;;;;;;;4991172;28;20053;-65
2023/04/14 04:55:40;;;;;;;10.43;9.73;;;;;;;;;;4994944;28;20029;-65
2023/04/14 04:58:05;;;;;;;11.75;10.90;;;;;;;;;;4996680;28;20034;-65
2023/04/14 05:00:30;;;;;;;9.60;9.00;;;;;;;;;;4993675;28;20729;-64
2023/04/14 05:02:56;;;;;;;9.68;9.07;;;;;;;;;;4994137;28;20084;-65
2023/04/14 05:05:21;;;;;;;10.35;9.55;;;;;;;;;;4996118;28;20052;-65
2023/04/14 05:07:47;;;;;;;9.98;9.23;;;;;;;;;;4993707;28;20472;-65
2023/04/14 05:10:12;;;;;;;10.10;9.40;;;;;;;;;;4998208;28;20109;-66
2023/04/14 05:12:38;;;;;;;9.40;8.80;;;;;;;;;;4995967;28;20046;-65
2023/04/14 05:15:03;;;;;;;10.70;9.98;;;;;;;;;;4994614;28;20052;-65
2023/04/14 05:17:29;;;;;;;9.65;8.95;;;;;;;;;;4992255;28;20165;-65
2023/04/14 05:19:54;;;;;;;10.85;10.05;;;;;;;;;;4996230;28;20049;-65
2023/04/14 05:22:19;;;;;;;9.52;8.93;;;;;;;;;;4996596;28;20038;-65
2023/04/14 05:24:51;;;;;;;11.13;10.43;;;;;;;;;;4998395;28;20069;-65
2023/04/14 05:27:16;;;;;;;12.05;11.18;;;;;;;;;;4999002;28;20112;-65
2023/04/14 05:29:42;;;;;;;11.02;10.32;;;;;;;;;;4998549;28;20524;-65
2023/04/14 05:32:07;;;;;;;10.50;9.80;;;;;;;;;;4996580;28;21004;-65
2023/04/14 05:34:32;;;;;;;11.25;10.45;;;;;;;;;;4994428;28;20572;-65
2023/04/14 05:36:58;;;;;;;10.18;9.48;;;;;;;;;;5000552;28;20045;-65
2023/04/14 05:39:23;;;;;;;11.57;10.77;;;;;;;;;;4998524;28;20046;-57
2023/04/14 05:41:48;;;;;;;11.45;10.63;;;;;;;;;;4996209;28;20034;-65
2023/04/14 05:44:14;;;;;;;11.23;10.52;;;;;;;;;;4997674;28;20041;-65
2023/04/14 05:46:40;;;;;;;10.43;9.75;;;;;;;;;;4999651;28;20039;-64
2023/04/14 05:49:05;;;;;;;11.85;11.10;;;;;;;;;;4996891;28;20053;-57
2023/04/14 05:51:31;;;;;;;11.60;10.90;;;;;;;;;;4995266;28;20034;-56
2023/04/14 05:53:57;;;;;;;11.43;10.63;;;;;;;;;;4995934;28;20049;-57
2023/04/14 05:56:23;;;;;;;11.30;10.50;;;;;;;;;;4997667;28;20034;-57
2023/04/14 05:58:48;;;;;;;11.40;10.70;;;;;;;;;;4998028;28;20049;-58
2023/04/14 06:01:13;;;;;;;10.90;10.05;;;;;;;;;;4997990;28;20619;-65
2023/04/14 06:03:39;;;;;;;10.88;10.07;;;;;;;;;;4996090;28;20499;-64
2023/04/14 06:06:04;;;;;;;10.23;9.52;;;;;;;;;;4998323;28;20046;-62
2023/04/14 06:08:30;;;;;;;10.85;10.15;;;;;;;;;;4994928;28;20092;-63
2023/04/14 06:10:55;;;;;;;10.93;10.23;;;;;;;;;;4998481;28;20120;-63
2023/04/14 06:13:21;;;;;;;11.48;10.68;;;;;;;;;;4997162;28;20045;-63
2023/04/14 06:15:50;;;;;;;11.50;10.60;;;;;;;;;;4995890;28;20168;-63
2023/04/14 06:18:15;;;;;;;10.52;9.82;;;;;;;;;;4995046;28;20042;-63
2023/04/14 06:20:41;;;;;;;11.07;10.35;;;;;;;;;;4994602;28;20044;-64
2023/04/14 06:23:06;;;;;;;10.60;9.95;;;;;;;;;;4995598;28;20034;-63
2023/04/14 06:25:33;;;;;;;10.20;9.60;;;;;;;;;;4994763;28;20041;-63
2023/04/14 06:28:02;;;;;;;10.93;10.23;;;;;;;;;;4998902;28;20121;-63
2023/04/14 06:30:28;;;;;;;11.38;10.52;;;;;;;;;;4997163;28;20026;-63
2023/04/14 06:32:54;;;;;;;10.50;9.80;;;;;;;;;;5028824;28;20038;-63
2023/04/14 06:35:19;;;;;;;11.30;10.60;;;;;;;;;;4997518;28;20038;-63
2023/04/14 06:37:45;;;;;;;12.38;11.43;;;;;;;;;;4995460;28;20038;-63
2023/04/14 06:40:11;;;;;;;11.23;10.43;;;;;;;;;;4996579;28;20034;-63
2023/04/14 06:42:36;;;;;;;10.35;9.68;;;;;;;;;;4996825;28;20037;-63
2023/04/14 06:45:01;;;;;;;10.77;10.07;;;;;;;;;;4996887;28;20059;-63
2023/04/14 06:47:27;;;;;;;14.55;9.45;;;;;;;;;;4993924;28;20097;-63
2023/04/14 06:49:52;;;;;;;12.35;11.45;;;;;;;;;;4995697;28;20107;-63
2023/04/14 06:52:17;;;;;;;10.30;9.60;;;;;;;;;;4994004;28;20084;-63
2023/04/14 06:54:43;;;;;;;10.13;9.32;;;;;;;;;;4997438;28;20516;-63
2023/04/14 06:57:08;;;;;;;11.40;10.57;;;;;;;;;;4993909;28;20126;-63
2023/04/14 06:59:34;;;;;;;10.32;9.63;;;;;;;;;;4993300;28;20096;-62
2023/04/14 07:01:59;;;;;;;10.55;9.85;;;;;;;;;;4991241;28;20472;-62
2023/04/14 07:04:25;;;;;;;12.02;11.27;;;;;;;;;;5003917;28;20027;-62
2023/04/14 07:06:50;;;;;;;10.70;10.00;;;;;;;;;;4995807;28;20037;-62
2023/04/14 07:09:17;;;;;;;10.95;10.25;;;;;;;;;;4998231;28;20414;-62
2023/04/14 07:11:45;;;;;;;11.30;10.57;;;;;;;;;;4995619;28;20065;-62
2023/04/14 07:14:10;;;;;;;10.63;9.93;;;;;;;;;;4991843;28;20093;-63
2023/04/14 07:16:36;;;;;;;10.38;9.77;;;;;;;;;;4997186;28;20895;-63
2023/04/14 07:19:01;;;;;;;11.32;10.52;;;;;;;;;;4995432;28;20510;-63
2023/04/14 07:21:27;;;;;;;10.88;10.18;;;;;;;;;;4990703;28;20353;-62
2023/04/14 07:23:53;;;;;;;12.80;12.00;;;;;;;;;;4992094;28;20022;-63
2023/04/14 07:26:18;;;;;;;11.00;10.30;;;;;;;;;;4992313;28;20515;-63
2023/04/14 07:28:43;;;;;;;11.15;10.35;;;;;;;;;;4994582;28;20053;-65
2023/04/14 07:31:09;;;;;;;11.68;10.98;;;;;;;;;;4995075;28;20029;-63
2023/04/14 07:33:35;;;;;;;12.18;11.38;;;;;;;;;;5000171;28;20057;-63
2023/04/14 07:36:03;;;;;;;12.50;11.70;;;;;;;;;;4994804;28;20026;-63
2023/04/14 07:38:32;;;;;;;10.57;9.88;;;;;;;;;;4994059;28;20045;-63
2023/04/14 07:40:58;;;;;;;11.13;10.43;;;;;;;;;;4992185;28;20129;-63
2023/04/14 07:43:23;;;;;;;11.73;10.88;;;;;;;;;;4992316;28;20121;-63
2023/04/14 07:45:50;;;;;;;10.15;9.55;;;;;;;;;;4994300;28;20038;-64
2023/04/14 07:48:18;;;;;;;10.00;9.30;;;;;;;;;;4996602;28;20359;-63
2023/04/14 07:50:44;;;;;;;10.27;9.57;;;;;;;;;;4993174;28;20065;-64
2023/04/14 07:53:09;;;;;;;10.90;10.10;;;;;;;;;;4996232;28;20048;-64
2023/04/14 07:55:35;;;;;;;10.60;9.80;;;;;;;;;;5026945;28;20145;-63
2023/04/14 07:58:00;;;;;;;10.93;10.23;;;;;;;;;;4996703;28;20042;-63
2023/04/14 08:00:25;;;;;;;10.38;9.68;;;;;;;;;;4993913;28;20033;-63
2023/04/14 08:02:51;;;;;;;12.05;11.25;;;;;;;;;;5026065;28;20026;-63
2023/04/14 08:05:16;;;;;;;11.82;10.93;;;;;;;;;;4994087;28;20555;-64
2023/04/14 08:07:42;;;;;;;10.32;9.63;;;;;;;;;;4996656;28;20117;-64
2023/04/14 08:10:07;;;;;;;11.27;10.57;;;;;;;;;;4992144;28;20122;-63
2023/04/14 08:12:32;;;;;;;13.57;12.52;;;;;;;;;;4996836;28;20062;-63
2023/04/14 08:14:58;;;;;;;14.77;13.73;;;;;;;;;;4992131;28;20034;-64
2023/04/14 08:17:23;;;;;;;13.70;12.80;;;;;;;;;;4995737;28;20030;-63
2023/04/14 08:19:49;;;;;;;13.10;12.23;;;;;;;;;;4992650;28;20034;-63
2023/04/14 08:22:14;;;;;;;13.15;12.35;;;;;;;;;;4995842;28;20042;-63
2023/04/14 08:24:39;;;;;;;12.85;12.05;;;;;;;;;;4996558;28;20671;-62
2023/04/14 08:27:05;;;;;;;14.20;13.23;;;;;;;;;;4994888;28;20030;-62
2023/04/14 08:29:30;;;;;;;14.10;13.20;;;;;;;;;;4993539;28;20445;-62
2023/04/14 08:31:55;;;;;;;13.75;12.95;;;;;;;;;;4991834;28;20096;-62
2023/04/14 08:34:21;;;;;;;15.85;14.75;;;;;;;;;;4991940;28;20038;-62
2023/04/14 08:36:46;;;;;;;14.20;13.30;;;;;;;;;;4994317;28;20464;-62
2023/04/14 08:39:12;;;;;;;13.80;12.90;;;;;;;;;;4994135;28;20401;-62
2023/04/14 08:41:38;;;;;;;13.55;12.65;;;;;;;;;;4993501;28;20038;-62
2023/04/14 08:44:04;;;;;;;13.85;12.95;;;;;;;;;;4994139;28;20215;-62
2023/04/14 08:46:30;;;;;;;14.90;13.95;;;;;;;;;;4992967;28;20038;-62
2023/04/14 08:49:06;;;;;;;11.93;11.18;;;;;;;;;;4993515;28;20092;-63
2023/04/14 08:51:37;;;;;;;11.00;10.30;;;;;;;;;;4996243;28;20038;-63
2023/04/14 08:54:07;;;;;;;11.38;10.68;;;;;;;;;;4997295;28;20477;-63
2023/04/14 08:56:35;;;;;;;11.85;11.05;;;;;;;;;;4999015;28;20038;-63
2023/04/14 08:59:01;;;;;;;13.23;12.18;;;;;;;;;;4996353;28;20036;-63
2023/04/14 09:01:28;;;;;;;11.15;10.40;;;;;;;;;;4996862;28;20468;-62
2023/04/14 09:03:55;;;;;;;11.35;10.65;;;;;;;;;;4995898;28;20045;-63
2023/04/14 09:06:21;;;;;;;11.25;10.48;;;;;;;;;;4999094;28;20040;-63
2023/04/14 09:08:47;;;;;;;11.70;10.90;;;;;;;;;;4995293;28;20038;-63
2023/04/14 09:11:14;;;;;;;11.23;10.52;;;;;;;;;;4995146;28;20586;-63
2023/04/14 09:13:41;;;;;;;10.55;9.85;;;;;;;;;;4997952;28;20397;-63
2023/04/14 09:16:07;;;;;;;12.50;11.65;;;;;;;;;;4997158;28;20483;-63
2023/04/14 09:18:33;;;;;;;11.60;10.90;;;;;;;;;;4996559;28;20062;-63
2023/04/14 09:20:58;;;;;;;13.15;12.25;;;;;;;;;;4995023;28;20080;-63
2023/04/14 09:23:24;;;;;;;11.02;10.32;;;;;;;;;;4999126;28;20121;-63
2023/04/14 09:25:50;;;;;;;12.38;11.48;;;;;;;;;;4996586;28;20030;-63
2023/04/14 09:28:15;;;;;;;13.02;12.23;;;;;;;;;;4996362;28;20083;-63
2023/04/14 09:30:42;;;;;;;12.38;11.57;;;;;;;;;;4996171;28;20142;-63
2023/04/14 09:33:17;;;;;;;13.45;12.43;;;;;;;;;;4999763;28;20027;-64
2023/04/14 09:35:48;;;;;;;14.30;13.40;;;;;;;;;;4996303;28;20062;-64
2023/04/14 09:38:15;;;;;;;20.00;18.90;;;;;;;;;;4997138;28;20072;-63
2023/04/14 09:40:42;;;;;;;24.80;23.23;;;;;;;;;;4995823;28;20065;-64
2023/04/14 09:43:21;;;;;;;24.60;23.20;;;;;;;;;;4996002;28;20030;-61
2023/04/14 09:45:46;;;;;;;17.48;16.48;;;;;;;;;;4997057;28;20025;-61
2023/04/14 09:48:11;;;;;;;24.80;23.48;;;;;;;;;;4997167;28;20046;-61
2023/04/14 09:50:57;;;;;;;29.38;27.77;;;;;;;;;;4998980;28;20030;-61
2023/04/14 09:53:26;;;;;;;31.42;29.73;;;;;;;;;;4997500;28;20042;-61
2023/04/14 09:55:52;;;;;;;32.45;30.67;;;;;;;;;;4994850;28;20123;-61
2023/04/14 09:58:21;;;;;;;31.70;30.10;;;;;;;;;;4994654;28;20080;-61
2023/04/14 10:00:48;;;;;;;27.27;25.88;;;;;;;;;;4998000;28;20116;-61
2023/04/14 10:03:14;;;;;;;29.60;28.00;;;;;;;;;;4996781;28;20030;-61
2023/04/14 10:05:46;;;;;;;30.88;29.27;;;;;;;;;;4995829;28;20561;-64
2023/04/14 10:08:12;;;;;;;25.52;24.17;;;;;;;;;;4996746;28;20041;-64
2023/04/14 10:10:37;;;;;;;28.40;26.88;;;;;;;;;;4999143;28;20121;-64
2023/04/14 10:13:02;;;;;;;17.85;16.85;;;;;;;;;;4994899;28;20633;-64
2023/04/14 10:15:28;;;;;;;13.15;12.30;;;;;;;;;;4995961;28;20038;-63
2023/04/14 10:17:55;;;;;;;13.68;12.88;;;;;;;;;;4998000;28;20038;-64
2023/04/14 10:20:21;;;;;;;15.48;14.57;;;;;;;;;;4993669;28;20114;-62
2023/04/14 10:22:46;;;;;;;22.83;21.52;;;;;;;;;;4992537;28;20038;-63
2023/04/14 10:25:12;;;;;;;16.80;15.80;;;;;;;;;;4994735;28;20046;-63
2023/04/14 10:27:38;;;;;;;17.95;16.88;;;;;;;;;;4996747;28;20033;-63
2023/04/14 10:30:04;;;;;;;15.43;14.52;;;;;;;;;;4998390;28;20643;-63
2023/04/14 10:32:34;;;;;;;19.60;18.50;;;;;;;;;;4995875;28;20054;-63
2023/04/14 10:35:08;;;;;;;14.75;13.88;;;;;;;;;;4996903;28;20041;-64
2023/04/14 10:37:34;;;;;;;12.52;11.82;;;;;;;;;;4995474;28;20150;-64
2023/04/14 10:40:04;;;;;;;19.40;18.30;;;;;;;;;;4996770;28;20380;-63
2023/04/14 10:42:50;;;;;;;15.55;14.65;;;;;;;;;;4995298;28;20069;-63
2023/04/14 10:45:15;;;;;;;17.95;16.73;;;;;;;;;;4996325;28;20046;-63
2023/04/14 10:47:40;;;;;;;21.38;20.10;;;;;;;;;;4992576;28;20034;-66
2023/04/14 10:50:16;;;;;;;24.52;23.23;;;;;;;;;;4996139;28;20558;-64
2023/04/14 10:52:55;;;;;;;23.00;21.80;;;;;;;;;;4996196;28;20061;-64
2023/04/14 10:55:25;;;;;;;25.75;24.33;;;;;;;;;;4995839;28;20030;-63
2023/04/14 10:57:51;;;;;;;27.17;25.65;;;;;;;;;;4994326;28;20113;-63
2023/04/14 11:00:21;;;;;;;24.38;23.05;;;;;;;;;;4995176;28;20125;-64
2023/04/14 11:03:13;;;;;;;22.67;21.45;;;;;;;;;;4990458;28;20029;-64
2023/04/14 11:05:49;;;;;;;23.13;21.92;;;;;;;;;;4995387;28;20517;-63
2023/04/14 11:08:25;;;;;;;21.58;20.38;;;;;;;;;;4995934;28;20404;-64
2023/04/14 11:11:05;;;;;;;25.30;23.90;;;;;;;;;;4994881;28;20034;-64
2023/04/14 11:13:32;;;;;;;26.15;24.75;;;;;;;;;;4993129;28;20037;-64
2023/04/14 11:16:02;;;;;;;19.95;18.85;;;;;;;;;;4997146;28;20376;-65
2023/04/14 11:18:28;;;;;;;17.30;16.30;;;;;;;;;;4993605;28;20042;-64
2023/04/14 11:20:53;;;;;;;13.85;13.00;;;;;;;;;;4999055;28;20191;-64
2023/04/14 11:23:26;;;;;;;16.20;15.30;;;;;;;;;;4999724;28;20483;-64
2023/04/14 11:25:52;;;;;;;14.10;13.30;;;;;;;;;;4994116;28;20065;-63
2023/04/14 11:28:31;;;;;;;19.02;17.92;;;;;;;;;;4994636;28;20038;-63
2023/04/14 11:30:58;;;;;;;16.15;15.25;;;;;;;;;;4996830;28;20061;-63
2023/04/14 11:33:27;;;;;;;17.13;16.02;;;;;;;;;;4991571;28;20097;-63
2023/04/14 11:35:53;;;;;;;25.20;23.85;;;;;;;;;;4996345;28;20069;-62
2023/04/14 11:38:19;;;;;;;15.80;14.90;;;;;;;;;;4995631;28;20037;-65
2023/04/14 11:40:48;;;;;;;19.73;18.52;;;;;;;;;;4997674;28;20042;-63
2023/04/14 11:43:14;;;;;;;20.55;19.42;;;;;;;;;;4997061;28;20195;-63
2023/04/14 11:45:45;;;;;;;22.95;21.67;;;;;;;;;;4996287;28;20109;-65
2023/04/14 11:48:11;;;;;;;22.48;21.27;;;;;;;;;;4995597;28;20034;-65
2023/04/14 11:50:37;;;;;;;23.63;22.30;;;;;;;;;;4996559;28;20038;-65
2023/04/14 11:53:21;;;;;;;21.17;19.98;;;;;;;;;;4994855;28;20104;-66
2023/04/14 11:55:50;;;;;;;18.95;17.92;;;;;;;;;;4995597;28;20057;-66
2023/04/14 11:58:23;;;;;;;19.25;18.15;;;;;;;;;;4993359;28;20476;-66
2023/04/14 12:00:49;;;;;;;19.38;18.17;;;;;;;;;;4990059;28;20042;-64
2023/04/14 12:03:15;;;;;;;19.15;18.08;;;;;;;;;;4994138;28;20036;-66
2023/04/14 12:05:40;;;;;;;16.65;15.32;;;;;;;;;;4994481;28;20033;-65
2023/04/14 12:08:11;;;;;;;15.77;14.88;;;;;;;;;;4994175;28;20038;-66
2023/04/14 12:10:38;;;;;;;17.02;16.02;;;;;;;;;;4997300;28;20045;-66
2023/04/14 12:13:05;;;;;;;15.13;14.27;;;;;;;;;;5025557;28;20030;-66
2023/04/14 12:15:32;;;;;;;16.95;15.95;;;;;;;;;;4992269;28;20042;-67
2023/04/14 12:17:58;;;;;;;16.13;15.18;;;;;;;;;;4993086;28;20040;-66
2023/04/14 12:20:25;;;;;;;18.00;17.00;;;;;;;;;;4995862;28;20030;-66
2023/04/14 12:22:51;;;;;;;16.80;15.90;;;;;;;;;;4993615;28;20030;-66
2023/04/14 12:25:16;;;;;;;17.38;16.38;;;;;;;;;;4993818;28;20038;-65
2023/04/14 12:27:42;;;;;;;18.90;17.80;;;;;;;;;;4993488;28;20172;-65
2023/04/14 12:30:12;;;;;;;16.25;15.05;;;;;;;;;;4994071;28;20037;-65
2023/04/14 12:32:40;;;;;;;17.05;16.05;;;;;;;;;;4995035;28;20038;-66
2023/04/14 12:35:06;;;;;;;15.57;14.68;;;;;;;;;;4992323;28;20048;-66
2023/04/14 12:37:33;;;;;;;16.75;15.75;;;;;;;;;;4993755;28;20050;-66
2023/04/14 12:40:05;;;;;;;15.73;14.82;;;;;;;;;;4994306;28;20371;-64
2023/04/14 12:42:48;;;;;;;16.75;15.75;;;;;;;;;;4991887;28;20038;-66
2023/04/14 12:45:15;;;;;;;16.40;15.50;;;;;;;;;;4990678;28;20499;-68
2023/04/14 12:47:49;;;;;;;17.13;16.13;;;;;;;;;;4994618;28;20096;-66
2023/04/14 12:50:27;;;;;;;15.55;14.65;;;;;;;;;;4993406;28;20129;-66
2023/04/14 12:52:55;;;;;;;16.95;15.85;;;;;;;;;;4993231;28;20448;-67
2023/04/14 12:55:26;;;;;;;17.98;16.88;;;;;;;;;;4995740;28;20092;-67
2023/04/14 12:57:56;;;;;;;15.80;14.90;;;;;;;;;;4993647;28;20516;-69
2023/04/14 13:00:22;;;;;;;14.90;14.10;;;;;;;;;;4993557;28;20045;-67
2023/04/14 13:02:48;;;;;;;17.50;16.50;;;;;;;;;;4992900;28;20043;-67
2023/04/14 13:05:14;;;;;;;16.75;15.85;;;;;;;;;;4993892;28;20042;-70
2023/04/14 13:07:41;;;;;;;18.70;17.60;;;;;;;;;;4992070;28;20097;-67
2023/04/14 13:10:07;;;;;;;18.45;17.27;;;;;;;;;;4992085;28;20049;-66
2023/04/14 13:12:32;;;;;;;19.45;18.35;;;;;;;;;;4991882;28;20030;-66
2023/04/14 13:14:57;;;;;;;16.17;15.27;;;;;;;;;;4994250;28;20027;-66
2023/04/14 13:17:23;;;;;;;16.77;15.88;;;;;;;;;;4990608;28;20548;-66
2023/04/14 13:19:48;;;;;;;16.30;15.40;;;;;;;;;;4993543;28;20044;-66
2023/04/14 13:22:14;;;;;;;16.30;15.40;;;;;;;;;;4993667;28;20033;-65
2023/04/14 13:24:39;;;;;;;16.33;15.43;;;;;;;;;;4995032;28;20026;-65
2023/04/14 13:27:05;;;;;;;16.52;15.63;;;;;;;;;;4991854;28;20097;-65
2023/04/14 13:29:32;;;;;;;16.40;15.50;;;;;;;;;;4994526;28;20026;-65
2023/04/14 13:31:58;;;;;;;16.77;15.88;;;;;;;;;;4993665;28;20076;-65
2023/04/14 13:34:23;;;;;;;17.50;16.30;;;;;;;;;;4995942;28;20117;-66
2023/04/14 13:36:49;;;;;;;16.70;15.75;;;;;;;;;;4991687;28;20129;-61
2023/04/14 13:39:14;;;;;;;16.17;15.27;;;;;;;;;;4996092;28;20057;-65
2023/04/14 13:41:40;;;;;;;16.15;15.25;;;;;;;;;;4995889;28;20073;-65
2023/04/14 13:44:05;;;;;;;16.88;15.98;;;;;;;;;;4995341;28;20037;-61
2023/04/14 13:46:32;;;;;;;17.75;16.75;;;;;;;;;;5003827;28;20104;-61
2023/04/14 13:48:57;;;;;;;17.02;16.08;;;;;;;;;;4994118;28;20622;-61
2023/04/14 13:51:23;;;;;;;18.98;17.88;;;;;;;;;;4994748;28;20029;-60
2023/04/14 13:53:48;;;;;;;16.33;15.32;;;;;;;;;;4997869;28;20120;-64
2023/04/14 13:56:13;;;;;;;16.63;15.73;;;;;;;;;;4996196;28;20034;-65
2023/04/14 13:58:39;;;;;;;16.90;15.85;;;;;;;;;;4995644;28;20041;-64
2023/04/14 14:01:09;;;;;;;14.98;14.10;;;;;;;;;;4993917;28;20059;-64
2023/04/14 14:03:37;;;;;;;14.65;13.65;;;;;;;;;;4996118;28;20033;-65
2023/04/14 14:06:02;;;;;;;14.00;13.20;;;;;;;;;;4998019;28;20038;-65
2023/04/14 14:08:29;;;;;;;15.50;14.60;;;;;;;;;;4996661;28;20438;-65
2023/04/14 14:10:54;;;;;;;14.43;13.63;;;;;;;;;;4997046;28;20045;-64
2023/04/14 14:13:20;;;;;;;15.15;14.27;;;;;;;;;;4997233;28;20036;-61
2023/04/14 14:15:46;;;;;;;14.25;13.45;;;;;;;;;;4995256;28;20045;-67
2023/04/14 14:18:13;;;;;;;16.88;15.98;;;;;;;;;;4994484;28;20038;-65
2023/04/14 14:20:38;;;;;;;14.55;13.55;;;;;;;;;;4997427;28;20038;-60
2023/04/14 14:23:04;;;;;;;14.20;13.35;;;;;;;;;;4995971;28;20656;-60
2023/04/14 14:25:29;;;;;;;14.27;13.48;;;;;;;;;;4994474;28;20030;-64
2023/04/14 14:27:55;;;;;;;14.45;13.45;;;;;;;;;;4996906;28;20661;-60